createdAt,value
2023-02-27T00:02:23.235Z,58.57
2023-02-27T00:04:57.990Z,59.51
2023-02-27T00:07:28.809Z,59.34
2023-02-27T00:09:58.175Z,59.50
2023-02-27T00:12:26.078Z,60.02
2023-02-27T00:14:55.433Z,59.99
2023-02-27T00:17:25.800Z,60.39
2023-02-27T00:19:53.752Z,60.46
2023-02-27T00:22:21.636Z,60.02
2023-02-27T00:24:49.541Z,61.19
2023-02-27T00:27:17.505Z,60.88
2023-02-27T00:29:45.421Z,61.39
2023-02-27T00:32:14.772Z,61.39
2023-02-27T00:34:42.977Z,61.32
2023-02-27T00:37:11.112Z,61.22
2023-02-27T00:39:39.041Z,61.78
2023-02-27T00:42:06.978Z,61.49
2023-02-27T00:44:34.959Z,60.73
2023-02-27T00:47:03.141Z,61.01
2023-02-27T00:49:32.474Z,61.69
2023-02-27T00:52:00.455Z,60.88
2023-02-27T00:54:28.526Z,60.31
2023-02-27T00:56:56.493Z,60.65
2023-02-27T00:59:24.478Z,60.69
2023-02-27T01:01:52.614Z,60.69
2023-02-27T01:04:20.837Z,61.75
2023-02-27T01:06:50.255Z,61.61
2023-02-27T01:09:18.228Z,61.20
2023-02-27T01:11:46.224Z,61.84
2023-02-27T01:14:14.979Z,61.32
2023-02-27T01:16:43.100Z,61.79
2023-02-27T01:19:11.104Z,61.56
2023-02-27T01:21:42.022Z,61.36
2023-02-27T01:24:12.610Z,61.28
2023-02-27T01:26:42.862Z,61.65
2023-02-27T01:29:11.221Z,61.70
2023-02-27T01:31:39.252Z,61.85
2023-02-27T01:34:07.184Z,62.43
2023-02-27T01:36:35.153Z,62.27
2023-02-27T01:39:03.058Z,62.27
2023-02-27T01:41:32.679Z,62.02
2023-02-27T01:44:04.025Z,62.15
2023-02-27T01:46:34.497Z,62.81
2023-02-27T01:49:09.703Z,63.37
2023-02-27T01:51:47.414Z,62.69
2023-02-27T01:54:21.499Z,63.11
2023-02-27T01:56:51.873Z,63.57
2023-02-27T01:59:21.144Z,63.17
2023-02-27T02:01:49.719Z,64.14
2023-02-27T02:04:26.469Z,63.71
2023-02-27T02:07:01.801Z,63.29
2023-02-27T02:09:31.251Z,63.68
2023-02-27T02:12:01.383Z,64.00
2023-02-27T02:14:29.280Z,65.21
2023-02-27T02:17:15.819Z,64.97
2023-02-27T02:20:46.434Z,65.15
2023-02-27T02:23:46.369Z,65.69
2023-02-27T02:26:38.904Z,66.35
2023-02-27T02:30:03.764Z,65.84
2023-02-27T02:33:28.187Z,65.83
2023-02-27T02:36:47.589Z,66.78
2023-02-27T02:39:58.358Z,66.77
2023-02-27T02:42:33.162Z,66.64
2023-02-27T02:45:18.368Z,66.54
2023-02-27T02:48:03.971Z,67.44
2023-02-27T02:50:40.777Z,66.68
2023-02-27T02:53:23.973Z,66.29
2023-02-27T02:56:01.768Z,67.20
2023-02-27T02:58:38.897Z,67.00
2023-02-27T03:01:15.698Z,67.35
2023-02-27T03:03:53.739Z,67.35
2023-02-27T03:06:29.588Z,67.74
2023-02-27T03:09:06.925Z,68.02
2023-02-27T03:11:42.099Z,67.83
2023-02-27T03:14:20.270Z,68.07
2023-02-27T03:16:54.540Z,67.43
2023-02-27T03:19:28.671Z,67.69
2023-02-27T03:22:05.357Z,68.15
2023-02-27T03:24:41.481Z,68.27
2023-02-27T03:27:13.266Z,68.21
2023-02-27T03:29:48.902Z,68.33
2023-02-27T03:32:26.249Z,68.02
2023-02-27T03:34:54.440Z,67.64
2023-02-27T03:37:37.404Z,68.04
2023-02-27T03:40:21.393Z,68.04
2023-02-27T03:42:57.162Z,67.62
2023-02-27T03:45:35.931Z,67.84
2023-02-27T03:48:06.971Z,67.95
2023-02-27T03:50:35.622Z,67.58
2023-02-27T03:53:08.075Z,67.87
2023-02-27T03:55:42.163Z,66.89
2023-02-27T03:58:11.596Z,68.01
2023-02-27T04:00:39.845Z,66.98
2023-02-27T04:03:08.234Z,68.21
2023-02-27T04:05:37.277Z,67.50
2023-02-27T04:08:42.866Z,67.95
2023-02-27T04:11:38.460Z,68.26
2023-02-27T04:14:31.949Z,69.00
2023-02-27T04:17:25.889Z,67.66
2023-02-27T04:20:18.489Z,68.53
2023-02-27T04:22:53.435Z,67.76
2023-02-27T04:25:40.576Z,68.04
2023-02-27T04:28:17.976Z,68.43
2023-02-27T04:31:02.586Z,69.37
2023-02-27T04:33:45.460Z,68.88
2023-02-27T04:36:23.669Z,68.80
2023-02-27T04:39:03.630Z,69.04
2023-02-27T04:41:39.193Z,69.01
2023-02-27T04:44:12.472Z,69.07
2023-02-27T04:46:46.273Z,69.48
2023-02-27T04:49:22.780Z,69.41
2023-02-27T04:51:58.432Z,69.90
2023-02-27T04:54:33.670Z,69.46
2023-02-27T04:57:08.557Z,69.74
2023-02-27T04:59:42.605Z,68.97
2023-02-27T05:02:19.957Z,69.19
2023-02-27T05:04:51.342Z,69.09
2023-02-27T05:07:26.747Z,68.09
2023-02-27T05:10:03.480Z,68.00
2023-02-27T05:12:37.343Z,67.60
2023-02-27T05:15:14.054Z,66.99
2023-02-27T05:17:51.226Z,66.69
2023-02-27T05:20:21.159Z,67.12
2023-02-27T05:22:59.845Z,67.48
2023-02-27T05:25:38.607Z,67.67
2023-02-27T05:28:16.410Z,68.66
2023-02-27T05:30:57.374Z,68.54
2023-02-27T05:33:36.669Z,68.03
2023-02-27T05:36:15.433Z,67.41
2023-02-27T05:38:52.528Z,66.90
2023-02-27T05:41:28.769Z,67.27
2023-02-27T05:44:04.892Z,67.83
2023-02-27T05:46:39.695Z,67.17
2023-02-27T05:49:14.746Z,67.46
2023-02-27T05:51:49.363Z,67.96
2023-02-27T05:54:27.845Z,67.38
2023-02-27T05:57:00.786Z,67.47
2023-02-27T05:59:41.692Z,66.84
2023-02-27T06:02:09.701Z,66.94
2023-02-27T06:04:41.853Z,66.77
2023-02-27T06:07:09.809Z,66.71
2023-02-27T06:09:40.569Z,66.20
2023-02-27T06:12:08.575Z,67.06
2023-02-27T06:14:36.587Z,67.34
2023-02-27T06:17:05.039Z,67.17
2023-02-27T06:19:33.091Z,66.82
2023-02-27T06:22:02.404Z,66.78
2023-02-27T06:24:30.322Z,66.44
2023-02-27T06:26:58.244Z,66.03
2023-02-27T06:29:26.239Z,66.93
2023-02-27T06:31:55.638Z,66.65
2023-02-27T06:34:23.714Z,66.27
2023-02-27T06:36:51.627Z,65.94
2023-02-27T06:39:21.169Z,66.79
2023-02-27T06:41:49.393Z,66.72
2023-02-27T06:44:19.434Z,66.79
2023-02-27T06:46:47.582Z,66.72
2023-02-27T06:49:15.545Z,66.14
2023-02-27T06:51:45.031Z,65.99
2023-02-27T06:54:13.115Z,66.28
2023-02-27T06:56:46.032Z,65.68
2023-02-27T06:59:14.234Z,65.83
2023-02-27T07:01:42.256Z,65.09
2023-02-27T07:04:13.188Z,65.52
2023-02-27T07:07:34.673Z,65.05
2023-02-27T07:09:33.024Z,66.58
2023-02-27T07:12:02.388Z,68.00
2023-02-27T07:14:30.840Z,66.91
2023-02-27T07:16:59.432Z,65.60
2023-02-27T07:19:27.332Z,65.31
2023-02-27T07:21:55.277Z,65.42
2023-02-27T07:24:23.295Z,65.86
2023-02-27T07:26:53.211Z,65.80
2023-02-27T07:29:22.535Z,66.33
2023-02-27T07:31:50.541Z,66.58
2023-02-27T07:34:18.530Z,65.65
2023-02-27T07:36:46.953Z,62.86
2023-02-27T07:39:15.029Z,63.08
2023-02-27T07:41:42.945Z,63.12
2023-02-27T07:44:11.017Z,62.88
2023-02-27T07:46:44.746Z,60.54
2023-02-27T07:49:12.869Z,57.37
2023-02-27T07:51:43.836Z,54.36
2023-02-27T07:54:11.947Z,54.84
2023-02-27T07:56:42.888Z,51.45
2023-02-27T07:59:10.984Z,49.13
2023-02-27T08:01:42.972Z,49.85
2023-02-27T08:04:11.312Z,49.31
2023-02-27T08:06:39.857Z,48.80
2023-02-27T08:09:07.989Z,46.15
2023-02-27T08:11:35.916Z,47.07
2023-02-27T08:14:04.137Z,48.51
2023-02-27T08:16:33.054Z,48.32
2023-02-27T08:19:03.071Z,49.50
2023-02-27T08:21:31.451Z,50.89
2023-02-27T08:23:59.772Z,50.36
2023-02-27T08:26:28.093Z,50.26
2023-02-27T08:28:56.248Z,50.51
2023-02-27T08:31:24.690Z,50.30
2023-02-27T08:34:01.016Z,48.87
2023-02-27T08:36:33.837Z,51.11
2023-02-27T08:39:01.890Z,53.80
2023-02-27T08:41:29.869Z,55.04
2023-02-27T08:43:57.781Z,53.25
2023-02-27T08:46:26.253Z,54.18
2023-02-27T08:48:54.767Z,55.08
2023-02-27T08:51:22.845Z,55.53
2023-02-27T08:53:52.962Z,55.43
2023-02-27T08:56:20.884Z,55.35
2023-02-27T08:58:48.791Z,58.42
2023-02-27T09:01:16.777Z,57.37
2023-02-27T09:03:44.747Z,57.42
2023-02-27T09:06:13.470Z,57.16
2023-02-27T09:08:41.449Z,58.83
2023-02-27T09:11:10.691Z,58.69
2023-02-27T09:13:38.671Z,61.06
2023-02-27T09:16:07.721Z,61.42
2023-02-27T09:18:35.865Z,61.90
2023-02-27T09:21:04.154Z,61.79
2023-02-27T09:23:32.145Z,61.03
2023-02-27T09:25:59.969Z,59.93
2023-02-27T09:28:29.323Z,59.37
2023-02-27T09:30:57.355Z,58.74
2023-02-27T09:33:29.081Z,58.64
2023-02-27T09:35:57.200Z,57.77
2023-02-27T09:38:25.192Z,59.36
2023-02-27T09:40:56.938Z,58.24
2023-02-27T09:43:33.716Z,58.34
2023-02-27T09:46:04.156Z,56.80
2023-02-27T09:48:36.208Z,57.84
2023-02-27T09:51:05.549Z,54.24
2023-02-27T09:53:39.247Z,53.38
2023-02-27T09:56:17.773Z,53.08
2023-02-27T09:58:59.041Z,54.72
2023-02-27T10:01:34.165Z,54.30
2023-02-27T10:04:37.537Z,53.16
2023-02-27T10:07:17.726Z,51.92
2023-02-27T10:10:04.680Z,51.65
2023-02-27T10:13:07.469Z,48.50
2023-02-27T10:15:42.827Z,49.48
2023-02-27T10:18:26.792Z,46.84
2023-02-27T10:21:01.622Z,46.77
2023-02-27T10:23:40.117Z,45.05
2023-02-27T10:26:19.722Z,42.88
2023-02-27T10:28:48.508Z,40.22
2023-02-27T10:31:24.071Z,39.79
2023-02-27T10:33:53.479Z,41.63
2023-02-27T10:36:33.132Z,40.58
2023-02-27T10:39:07.906Z,40.85
2023-02-27T10:41:38.013Z,41.55
2023-02-27T10:44:06.600Z,41.56
2023-02-27T10:46:38.837Z,41.59
2023-02-27T10:49:18.853Z,41.78
2023-02-27T10:52:04.401Z,42.83
2023-02-27T10:54:32.518Z,42.84
2023-02-27T10:57:07.185Z,44.96
2023-02-27T10:59:39.739Z,46.22
2023-02-27T11:02:24.704Z,44.77
2023-02-27T11:04:56.006Z,44.29
2023-02-27T11:07:35.785Z,44.43
2023-02-27T11:10:19.071Z,43.28
2023-02-27T11:13:02.194Z,42.96
2023-02-27T11:15:33.915Z,44.05
2023-02-27T11:18:27.204Z,43.63
2023-02-27T11:21:09.716Z,42.92
2023-02-27T11:23:37.804Z,43.15
2023-02-27T11:26:18.501Z,41.67
2023-02-27T11:28:46.404Z,41.81
2023-02-27T11:31:23.421Z,43.92
2023-02-27T11:33:55.960Z,43.06
2023-02-27T11:36:24.592Z,44.45
2023-02-27T11:38:55.235Z,44.37
2023-02-27T11:41:35.007Z,43.74
2023-02-27T11:44:05.586Z,44.63
2023-02-27T11:46:47.952Z,44.09
2023-02-27T11:49:34.763Z,44.51
2023-02-27T11:52:16.468Z,46.73
2023-02-27T11:54:52.099Z,47.28
2023-02-27T11:57:28.626Z,47.03
2023-02-27T12:00:06.570Z,47.21
2023-02-27T12:02:47.739Z,46.08
2023-02-27T12:05:21.719Z,46.21
2023-02-27T12:07:57.633Z,45.70
2023-02-27T12:10:31.785Z,45.37
2023-02-27T12:13:06.809Z,46.52
2023-02-27T12:15:48.048Z,46.76
2023-02-27T12:18:20.968Z,47.67
2023-02-27T12:20:58.440Z,45.43
2023-02-27T12:23:36.858Z,42.78
2023-02-27T12:26:13.618Z,43.37
2023-02-27T12:28:56.207Z,42.70
2023-02-27T12:31:47.881Z,42.83
2023-02-27T12:34:29.425Z,44.25
2023-02-27T12:37:04.783Z,44.88
2023-02-27T12:39:35.942Z,43.71
2023-02-27T12:42:40.180Z,43.29
2023-02-27T12:45:32.720Z,42.97
2023-02-27T12:48:22.521Z,41.50
2023-02-27T12:51:04.261Z,40.63
2023-02-27T12:54:12.957Z,39.74
2023-02-27T12:56:56.015Z,39.92
2023-02-27T12:59:48.921Z,40.85
2023-02-27T13:02:51.402Z,40.64
2023-02-27T13:05:38.706Z,43.56
2023-02-27T13:08:21.835Z,44.02
2023-02-27T13:10:58.291Z,44.43
2023-02-27T13:13:36.829Z,43.85
2023-02-27T13:16:12.827Z,41.19
2023-02-27T13:18:47.391Z,39.86
2023-02-27T13:21:26.665Z,39.47
2023-02-27T13:24:10.828Z,38.62
2023-02-27T13:26:46.433Z,38.70
2023-02-27T13:29:18.285Z,38.77
2023-02-27T13:31:57.000Z,38.02
2023-02-27T13:34:42.596Z,37.00
2023-02-27T13:37:11.324Z,37.95
2023-02-27T13:39:59.440Z,38.23
2023-02-27T13:42:58.963Z,38.31
2023-02-27T13:45:58.207Z,38.34
2023-02-27T13:49:28.766Z,36.62
2023-02-27T13:52:06.577Z,37.41
2023-02-27T13:54:42.314Z,37.23
2023-02-27T13:57:33.753Z,38.78
2023-02-27T14:00:09.149Z,39.28
2023-02-27T14:02:59.294Z,39.25
2023-02-27T14:05:34.835Z,39.57
2023-02-27T14:08:15.273Z,39.79
2023-02-27T14:10:58.866Z,40.38
2023-02-27T14:13:59.636Z,40.52
2023-02-27T14:16:58.726Z,39.54
2023-02-27T14:19:56.958Z,38.92
2023-02-27T14:23:11.311Z,39.93
2023-02-27T14:25:46.537Z,41.16
2023-02-27T14:28:26.277Z,40.83
2023-02-27T14:31:01.096Z,42.34
2023-02-27T14:33:46.779Z,42.20
2023-02-27T14:36:20.620Z,41.63
2023-02-27T14:38:50.532Z,41.02
2023-02-27T14:41:40.489Z,41.43
2023-02-27T14:44:20.194Z,42.25
2023-02-27T14:46:48.532Z,42.69
2023-02-27T14:49:24.411Z,43.00
2023-02-27T14:51:53.142Z,42.91
2023-02-27T14:54:24.642Z,43.50
2023-02-27T14:56:59.691Z,43.87
2023-02-27T14:59:31.210Z,44.18
2023-02-27T15:02:04.272Z,44.04
2023-02-27T15:04:34.460Z,43.93
2023-02-27T15:07:02.991Z,44.24
2023-02-27T15:09:38.521Z,44.42
2023-02-27T15:12:09.690Z,44.40
2023-02-27T15:14:41.164Z,44.79
2023-02-27T15:17:18.458Z,45.52
2023-02-27T15:19:54.394Z,45.53
2023-02-27T15:22:38.646Z,46.02
2023-02-27T15:25:27.165Z,45.08
2023-02-27T15:28:01.675Z,45.97
2023-02-27T15:30:29.975Z,44.56
2023-02-27T15:32:58.643Z,45.66
2023-02-27T15:35:33.281Z,45.41
2023-02-27T15:38:02.538Z,44.65
2023-02-27T15:40:33.822Z,44.75
2023-02-27T15:43:03.869Z,45.14
2023-02-27T15:45:35.107Z,45.19
2023-02-27T15:48:04.748Z,45.21
2023-02-27T15:50:37.223Z,45.94
2023-02-27T15:53:13.405Z,45.88
2023-02-27T15:55:46.057Z,45.94
2023-02-27T15:58:25.896Z,45.87
2023-02-27T16:01:01.655Z,46.12
2023-02-27T16:03:34.883Z,46.93
2023-02-27T16:06:03.036Z,46.50
2023-02-27T16:08:32.916Z,46.77
2023-02-27T16:11:02.334Z,46.24
2023-02-27T16:13:38.128Z,46.85
2023-02-27T16:16:23.031Z,47.83
2023-02-27T16:18:53.962Z,47.89
2023-02-27T16:21:23.770Z,47.83
2023-02-27T16:23:53.926Z,48.62
2023-02-27T16:26:31.855Z,48.29
2023-02-27T16:29:04.741Z,48.41
2023-02-27T16:31:36.732Z,48.29
2023-02-27T16:34:16.691Z,48.09
2023-02-27T16:36:55.820Z,48.83
2023-02-27T16:39:23.984Z,49.30
2023-02-27T16:41:53.995Z,49.90
2023-02-27T16:44:24.397Z,50.40
2023-02-27T16:46:53.344Z,50.49
2023-02-27T16:49:24.640Z,51.14
2023-02-27T16:51:53.429Z,50.57
2023-02-27T16:54:21.950Z,51.04
2023-02-27T16:56:51.841Z,51.13
2023-02-27T16:59:33.435Z,51.38
2023-02-27T17:02:04.419Z,52.25
2023-02-27T17:04:33.114Z,51.96
2023-02-27T17:07:06.409Z,52.79
2023-02-27T17:09:35.198Z,53.14
2023-02-27T17:12:03.373Z,53.35
2023-02-27T17:14:32.701Z,53.73
2023-02-27T17:17:00.699Z,54.16
2023-02-27T17:19:28.662Z,53.89
2023-02-27T17:21:56.668Z,53.94
2023-02-27T17:24:24.633Z,54.39
2023-02-27T17:26:54.460Z,53.81
2023-02-27T17:29:23.948Z,53.82
2023-02-27T17:31:57.457Z,54.03
2023-02-27T17:34:25.587Z,54.40
2023-02-27T17:36:53.529Z,54.38
2023-02-27T17:39:21.549Z,54.78
2023-02-27T17:41:49.536Z,54.08
2023-02-27T17:44:17.445Z,54.53
2023-02-27T17:46:45.404Z,54.81
2023-02-27T17:49:14.687Z,55.58
2023-02-27T17:51:42.764Z,55.10
2023-02-27T17:54:11.109Z,55.34
2023-02-27T17:56:44.619Z,54.80
2023-02-27T17:59:12.604Z,54.75
2023-02-27T18:01:40.742Z,55.85
2023-02-27T18:04:22.977Z,55.90
2023-02-27T18:06:51.520Z,56.07
2023-02-27T18:09:19.593Z,56.01
2023-02-27T18:11:49.599Z,56.25
2023-02-27T18:14:17.528Z,56.76
2023-02-27T18:16:45.463Z,56.75
2023-02-27T18:19:14.467Z,55.99
2023-02-27T18:21:48.311Z,56.73
2023-02-27T18:24:17.340Z,56.72
2023-02-27T18:26:45.566Z,56.14
2023-02-27T18:29:16.328Z,55.06
2023-02-27T18:31:47.550Z,55.16
2023-02-27T18:34:15.893Z,55.26
2023-02-27T18:36:46.567Z,56.20
2023-02-27T18:39:14.580Z,56.36
2023-02-27T18:41:42.834Z,57.05
2023-02-27T18:44:11.572Z,57.52
2023-02-27T18:46:40.591Z,57.99
2023-02-27T18:49:11.147Z,58.02
2023-02-27T18:51:41.801Z,58.49
2023-02-27T18:54:13.779Z,58.71
2023-02-27T18:56:41.968Z,58.56
2023-02-27T18:59:11.951Z,59.22
2023-02-27T19:01:41.087Z,59.13
2023-02-27T19:04:10.164Z,59.65
2023-02-27T19:06:45.469Z,59.87
2023-02-27T19:09:17.010Z,59.29
2023-02-27T19:11:46.962Z,59.72
2023-02-27T19:14:17.060Z,59.95
2023-02-27T19:16:46.085Z,58.93
2023-02-27T19:19:13.998Z,59.83
2023-02-27T19:21:41.932Z,59.71
2023-02-27T19:24:13.169Z,59.16
2023-02-27T19:26:42.828Z,60.03
2023-02-27T19:29:10.907Z,59.69
2023-02-27T19:31:38.900Z,60.09
2023-02-27T19:34:07.078Z,58.79
2023-02-27T19:36:35.623Z,58.70
2023-02-27T19:39:08.695Z,57.99
2023-02-27T19:41:42.490Z,58.11
2023-02-27T19:44:10.737Z,57.54
2023-02-27T19:46:42.151Z,57.87
2023-02-27T19:49:10.142Z,57.87
2023-02-27T19:51:38.776Z,57.89
2023-02-27T19:54:07.527Z,58.38
2023-02-27T19:56:35.393Z,58.06
2023-02-27T19:59:04.930Z,57.80
2023-02-27T20:01:38.858Z,58.34
2023-02-27T20:04:11.128Z,58.44
2023-02-27T20:06:43.872Z,58.52
2023-02-27T20:09:20.266Z,58.62
2023-02-27T20:11:56.773Z,58.80
2023-02-27T20:14:27.161Z,59.10
2023-02-27T20:16:55.787Z,59.62
2023-02-27T20:19:26.741Z,59.25
2023-02-27T20:21:56.477Z,59.30
2023-02-27T20:24:24.538Z,59.28
2023-02-27T20:26:58.752Z,59.49
2023-02-27T20:29:29.602Z,59.30
2023-02-27T20:31:58.277Z,59.89
2023-02-27T20:34:27.709Z,59.31
2023-02-27T20:36:57.576Z,59.18
2023-02-27T20:39:26.065Z,59.27
2023-02-27T20:41:54.061Z,59.25
2023-02-27T20:44:21.933Z,59.37
2023-02-27T20:46:53.920Z,59.92
2023-02-27T20:49:22.731Z,60.19
2023-02-27T20:51:52.750Z,60.38
2023-02-27T20:54:21.134Z,61.04
2023-02-27T20:56:52.813Z,61.10
2023-02-27T20:59:23.440Z,60.80
2023-02-27T21:01:55.484Z,60.06
2023-02-27T21:04:34.041Z,60.22
2023-02-27T21:07:02.287Z,60.17
2023-02-27T21:09:31.664Z,61.75
2023-02-27T21:11:59.601Z,61.93
2023-02-27T21:14:27.533Z,60.99
2023-02-27T21:16:56.882Z,61.75
2023-02-27T21:19:25.305Z,62.12
2023-02-27T21:21:53.325Z,61.65
2023-02-27T21:24:21.511Z,62.52
2023-02-27T21:26:52.020Z,63.28
2023-02-27T21:29:22.288Z,63.30
2023-02-27T21:31:53.008Z,62.47
2023-02-27T21:34:26.560Z,62.42
2023-02-27T21:36:55.463Z,63.64
2023-02-27T21:39:28.068Z,63.64
2023-02-27T21:41:56.352Z,62.38
2023-02-27T21:44:26.141Z,62.61
2023-02-27T21:46:55.614Z,63.03
2023-02-27T21:49:28.181Z,63.19
2023-02-27T21:51:57.085Z,62.37
2023-02-27T21:54:25.426Z,63.18
2023-02-27T21:56:53.392Z,62.73
2023-02-27T21:59:21.853Z,63.10
2023-02-27T22:01:50.199Z,62.39
2023-02-27T22:04:21.428Z,63.14
2023-02-27T22:06:54.060Z,63.77
2023-02-27T22:09:22.371Z,62.89
2023-02-27T22:11:50.286Z,62.05
2023-02-27T22:14:18.428Z,61.91
2023-02-27T22:16:46.460Z,62.26
2023-02-27T22:19:19.762Z,63.29
2023-02-27T22:21:47.998Z,62.61
2023-02-27T22:24:17.775Z,62.74
2023-02-27T22:26:47.786Z,63.16
2023-02-27T22:29:17.110Z,62.60
2023-02-27T22:31:45.356Z,62.84
2023-02-27T22:34:18.031Z,62.42
2023-02-27T22:36:58.549Z,61.99
2023-02-27T22:39:27.904Z,61.60
2023-02-27T22:41:56.879Z,62.75
2023-02-27T22:44:25.227Z,63.39
2023-02-27T22:46:54.657Z,63.72
2023-02-27T22:49:24.781Z,63.87
2023-02-27T22:51:53.589Z,63.34
2023-02-27T22:54:23.702Z,62.41
2023-02-27T22:56:57.903Z,62.98
2023-02-27T22:59:26.792Z,62.21
2023-02-27T23:01:55.116Z,62.17
2023-02-27T23:04:23.208Z,63.05
2023-02-27T23:06:52.898Z,62.19
2023-02-27T23:09:25.393Z,61.77
2023-02-27T23:11:55.685Z,61.92
2023-02-27T23:14:24.065Z,61.85
2023-02-27T23:16:52.023Z,62.13
2023-02-27T23:19:22.380Z,63.49
2023-02-27T23:21:50.713Z,64.31
2023-02-27T23:24:20.638Z,65.42
2023-02-27T23:26:52.655Z,65.15
2023-02-27T23:29:22.444Z,65.50
2023-02-27T23:31:53.977Z,64.61
2023-02-27T23:34:21.964Z,65.57
2023-02-27T23:36:51.123Z,66.24
2023-02-27T23:39:19.457Z,66.74
2023-02-27T23:41:47.446Z,65.60
2023-02-27T23:44:33.107Z,67.17
2023-02-27T23:47:02.445Z,66.53
2023-02-27T23:49:30.420Z,67.35
2023-02-27T23:51:58.248Z,67.82
2023-02-27T23:54:26.104Z,68.50
2023-02-27T23:56:54.005Z,66.74
2023-02-27T23:59:21.921Z,67.06
